Flight Track Log - Related Links

Times and Time Zones

All times are in EDT time to prevent confusion due to time zone crossing. See the N8445X flight status page for this flight to view local times or setup timezone preferences in your user account.

Time Position Orientation Groundspeed Altitude Reporting Facility
EDT Latitude Longitude Course Direction KTS MPH feet Rate Location/Type
Thu 03:14:00 PM 39.9095 -80.1601 325° Northwest  Level Estimated
Thu 03:15:00 PM 39.9337 -80.1824 325° Northwest  Level Estimated
Thu 03:16:00 PM 39.9579 -80.2047 325° Northwest  Level Estimated
Thu 03:17:00 PM 39.9821 -80.2270 325° Northwest  Level Estimated
Thu 03:18:00 PM 40.0063 -80.2493 325° Northwest  Level Estimated
Thu 03:19:00 PM 40.0305 -80.2716 325° Northwest  Level Estimated
Thu 03:20:00 PM 40.0547 -80.2940 325° Northwest  Level Estimated
Thu 03:21:00 PM 40.0789 -80.3163 325° Northwest  Level Estimated
Thu 03:22:00 PM 40.1031 -80.3387 325° Northwest  Level Estimated
Thu 03:23:00 PM 40.1273 -80.3611 325° Northwest  Level Estimated
Thu 03:24:00 PM 40.1514 -80.3835 325° Northwest  Level Estimated
Thu 03:25:00 PM 40.1756 -80.4059 325° Northwest  Level Estimated
Thu 03:26:00 PM 40.1997 -80.4283 325° Northwest  Level Estimated
Thu 03:27:00 PM 40.2239 -80.4508 325° Northwest  Level Estimated
Thu 03:28:00 PM 40.2481 -80.4733 325° Northwest  Level Estimated
Thu 03:29:00 PM 40.2722 -80.4957 325° Northwest  Level Estimated
Thu 03:30:00 PM 40.2964 -80.5182 325° Northwest  Level Estimated
Thu 03:31:00 PM 40.3205 -80.5408 325° Northwest  Level Estimated
Thu 03:32:00 PM 40.3446 -80.5633 325° Northwest  Level Estimated
Thu 03:33:00 PM 40.3688 -80.5858 325° Northwest  Level Estimated
Thu 03:34:00 PM 40.3929 -80.6084 325° Northwest  Level Estimated
Thu 03:35:00 PM 40.4170 -80.6310 325° Northwest  Level Estimated
Thu 03:36:00 PM 40.4411 -80.6536 325° Northwest  Level Estimated
Thu 03:37:00 PM 40.4653 -80.6762 324° Northwest  Level Estimated
Thu 03:38:00 PM 40.4894 -80.6988 324° Northwest  Level Estimated
Thu 03:39:00 PM 40.5135 -80.7215 324° Northwest  Level Estimated
Thu 03:40:00 PM 40.5376 -80.7441 324° Northwest  Level Estimated
Thu 03:41:00 PM 40.5617 -80.7668 324° Northwest  Level Estimated
Thu 03:42:00 PM 40.5858 -80.7895 324° Northwest  Level Estimated
Thu 03:43:00 PM 40.6099 -80.8122 324° Northwest  Level Estimated
Thu 03:44:00 PM 40.6339 -80.8350 324° Northwest  Level Estimated
Thu 03:45:00 PM 40.6580 -80.8577 324° Northwest  Level Estimated
Thu 03:46:00 PM 40.6821 -80.8804 324° Northwest  Level Estimated
Thu 03:47:00 PM 40.7062 -80.9032 324° Northwest  Level Estimated
Thu 03:48:00 PM 40.7302 -80.9260 324° Northwest  Level Estimated
Thu 03:49:00 PM 40.7543 -80.9488 324° Northwest  Level Estimated
Thu 03:50:00 PM 40.7784 -80.9717 324° Northwest  Level Estimated
Thu 03:51:00 PM 40.8024 -80.9945 324° Northwest  Level Estimated
Thu 03:52:00 PM 40.8265 -81.0174 324° Northwest  Level Estimated
Thu 03:53:00 PM 40.8505 -81.0402 324° Northwest  Level Estimated
Thu 03:54:00 PM 40.8745 -81.0631 324° Northwest  Level Estimated
Thu 03:55:00 PM 40.8986 -81.0860 324° Northwest  Level Estimated
Thu 03:56:00 PM 40.9226 -81.1090 324° Northwest  Level Estimated
Thu 03:57:00 PM 40.9466 -81.1319 324° Northwest  Level Estimated
Thu 03:57:53 PM 41.0556 -81.2136 324° Northwest 111 128 6,500  Level Cleveland Center
Thu 03:58:00 PM 40.9706 -81.1549 324° Northwest  Level Estimated
Thu 03:58:54 PM 41.0806 -81.2331 330° Northwest 104 120 6,500  Level Cleveland Center
Thu 03:59:00 PM 40.9947 -81.1778 324° Northwest  Level Estimated
Thu 03:59:49 PM 41.1033 -81.2556 323° Northwest 108 124 6,500  Level Cleveland Center
Thu 04:00:00 PM 41.0187 -81.2008 324° Northwest  Level Estimated
Thu 04:00:49 PM 41.1261 -81.2750 327° Northwest 107 123 6,700  Level Cleveland Center
Thu 04:01:00 PM 41.0427 -81.2238 324° Northwest  Level Estimated
Thu 04:01:56 PM 41.1553 -81.3000 327° Northwest 113 130 6,500  Level Cleveland Center
Thu 04:02:00 PM 41.0667 -81.2469 324° Northwest  Level Estimated
Thu 04:02:57 PM 41.1822 -81.3225 328° Northwest 106 122 6,600  Level Cleveland Center
Thu 04:03:00 PM 41.0907 -81.2699 324° Northwest  Level Estimated
Thu 04:03:58 PM 41.2069 -81.3450 326° Northwest 106 122 6,700  Level Cleveland Center
Thu 04:05:05 PM 41.2319 -81.3672 326° Northwest 106 122 6,700 -236 Level Cleveland Center
Thu 04:06:05 PM 41.2589 -81.3897 328° Northwest 105 121 6,200 -595 Descending Cleveland Center
Thu 04:07:06 PM 41.2858 -81.4094 331° Northwest 105 121 5,500 -836 Descending Cleveland Center
Thu 04:08:07 PM 41.3086 -81.4289 327° Northwest 102 117 4,500 -893 Descending Cleveland Center
Thu 04:09:07 PM 41.3314 -81.4514 323° Northwest 104 120 3,700 -496 Descending Cleveland Center
Thu 04:10:08 PM 41.3542 -81.4739 323° Northwest 105 121 3,500 -94 Descending Cleveland Center
Thu 04:11:14 PM 41.3811 -81.4964 328° Northwest 102 117 3,500  Level Cleveland Center
Thu 04:12:15 PM 41.4058 -81.5217 323° Northwest 101 116 3,500  Level Cleveland Center
Thu 04:13:16 PM 41.4350 -81.5303 348° North 105 121 3,500  Level Cleveland Center
Thu 04:14:10 PM 41.4578 -81.5472 331° Northwest 107 123 3,500 -261 Level Cleveland Center
Thu 04:15:11 PM 41.4825 -81.5644 332° Northwest 99 114 3,000 -639 Descending Cleveland Center
Thu 04:16:12 PM 41.5075 -81.5842 329° Northwest 101 116 2,200 -645 Descending Cleveland Center
Thu 04:17:12 PM 41.5281 -81.6039 324° Northwest 93 107 1,700 -298 Descending Cleveland Center
Thu 04:18:13 PM 41.5444 -81.6236 318° Northwest 79 91 1,600 -246 Descending Cleveland Center
Thu 04:19:14 PM 41.5339 -81.6511 243° Southwest 75 86 1,200 -470 Descending Cleveland Center
Thu 04:20:08 PM 41.5275 -81.6675 242° Southwest 67 77 700 -556 Descending Cleveland Center
Thu 04:22:00 PM 41.5175 -81.6833 157° South  Level Estimated
Thu 04:29:00 PM 41.5175 -81.6833 333° Northwest  Level Estimated

Login

Don't have an account? Register now (free) for customized features, flight alerts, and more!